Time;durP1;ratioP1;P1;durP2;ratioP2;P2;SDS_P1;SDS_P2;PMS_P1;PMS_P2;Temp;Humidity;BMP_temperature;BMP_pressure;BME280_temperature;BME280_humidity;BME280_pressure;Samples;Min_cycle;Max_cycle;Signal;HPM_P1;HPM_P2
2021/08/16 00:00:26;;;;;;;0.10;0.10;;;;;;;;;;6060726;23;20023;-88
2021/08/16 00:02:52;;;;;;;0.10;0.10;;;;;;;;;;6061170;23;20016;-88
2021/08/16 00:05:18;;;;;;;0.20;0.20;;;;;;;;;;6038434;23;20039;-88
2021/08/16 00:07:44;;;;;;;0.10;0.10;;;;;;;;;;6060756;23;20341;-88
2021/08/16 00:10:11;;;;;;;0.10;0.10;;;;;;;;;;6060833;23;20021;-88
2021/08/16 00:12:37;;;;;;;0.10;0.10;;;;;;;;;;6060703;23;20468;-88
2021/08/16 00:15:04;;;;;;;0.10;0.10;;;;;;;;;;6060693;23;20450;-87
2021/08/16 00:17:30;;;;;;;0.10;0.10;;;;;;;;;;6060605;23;20094;-87
2021/08/16 00:19:56;;;;;;;0.10;0.10;;;;;;;;;;6060911;23;20028;-88
2021/08/16 00:22:22;;;;;;;0.10;0.10;;;;;;;;;;6038353;23;20012;-87
2021/08/16 00:24:49;;;;;;;0.10;0.10;;;;;;;;;;6038019;23;20438;-89
2021/08/16 00:27:15;;;;;;;0.10;0.10;;;;;;;;;;6060405;23;20473;-88
2021/08/16 00:29:41;;;;;;;0.10;0.10;;;;;;;;;;6060724;23;20033;-88
2021/08/16 00:32:07;;;;;;;0.10;0.10;;;;;;;;;;6060861;23;20090;-88
2021/08/16 00:34:33;;;;;;;0.20;0.20;;;;;;;;;;6061295;23;20015;-87
2021/08/16 00:36:59;;;;;;;0.20;0.20;;;;;;;;;;6061990;23;20087;-87
2021/08/16 00:39:25;;;;;;;0.10;0.10;;;;;;;;;;6062343;23;20023;-88
2021/08/16 00:41:51;;;;;;;0.10;0.10;;;;;;;;;;6062203;23;20020;-88
2021/08/16 00:44:17;;;;;;;0.10;0.10;;;;;;;;;;6062178;23;20019;-87
2021/08/16 00:46:43;;;;;;;0.10;0.10;;;;;;;;;;6062238;23;20011;-88
2021/08/16 00:49:10;;;;;;;0.20;0.20;;;;;;;;;;6062306;23;20019;-87
2021/08/16 00:51:36;;;;;;;0.20;0.20;;;;;;;;;;6062271;23;20350;-87
2021/08/16 00:54:03;;;;;;;0.10;0.10;;;;;;;;;;6062287;23;20015;-87
2021/08/16 00:56:30;;;;;;;0.10;0.10;;;;;;;;;;6061956;23;20019;-87
2021/08/16 00:59:00;;;;;;;0.35;0.35;;;;;;;;;;6062307;23;20025;-87
2021/08/16 01:01:27;;;;;;;0.10;0.10;;;;;;;;;;6062363;23;20019;-87
2021/08/16 01:03:53;;;;;;;0.10;0.10;;;;;;;;;;6062073;23;20011;-88
2021/08/16 01:06:19;;;;;;;4.88;0.55;;;;;;;;;;6061732;23;20016;-88
2021/08/16 01:08:51;;;;;;;0.10;0.10;;;;;;;;;;6062075;23;20016;-87
2021/08/16 01:11:17;;;;;;;;;;;;;;;;;;6062542;23;20031;-88
2021/08/16 01:13:43;;;;;;;0.10;0.10;;;;;;;;;;6039871;23;19914;-87
2021/08/16 01:16:10;;;;;;;0.10;0.10;;;;;;;;;;6061925;23;20042;-87
2021/08/16 01:18:36;;;;;;;0.10;0.10;;;;;;;;;;6061586;23;20071;-88
2021/08/16 01:21:03;;;;;;;0.10;0.10;;;;;;;;;;6061881;23;20011;-88
2021/08/16 01:23:29;;;;;;;0.20;0.20;;;;;;;;;;6062147;23;20464;-88
2021/08/16 01:25:55;;;;;;;0.10;0.10;;;;;;;;;;6061967;23;20015;-88
2021/08/16 01:28:21;;;;;;;0.47;0.47;;;;;;;;;;6039688;23;20074;-88
2021/08/16 01:30:48;;;;;;;0.10;0.10;;;;;;;;;;6061919;23;20320;-88
2021/08/16 01:33:14;;;;;;;0.10;0.10;;;;;;;;;;6061528;23;20012;-88
2021/08/16 01:35:40;;;;;;;0.10;0.10;;;;;;;;;;6061456;23;20458;-88
2021/08/16 01:38:06;;;;;;;0.10;0.10;;;;;;;;;;6062101;23;20347;-88
2021/08/16 01:40:32;;;;;;;0.10;0.10;;;;;;;;;;6061793;23;20015;-87
2021/08/16 01:42:58;;;;;;;0.40;0.40;;;;;;;;;;6061842;23;20019;-87
2021/08/16 01:45:24;;;;;;;0.32;0.30;;;;;;;;;;6061697;23;20412;-88
2021/08/16 01:47:50;;;;;;;0.10;0.10;;;;;;;;;;6061339;23;20042;-88
2021/08/16 01:50:16;;;;;;;0.10;0.10;;;;;;;;;;6061849;23;20051;-87
2021/08/16 01:52:42;;;;;;;0.10;0.10;;;;;;;;;;6061825;23;20011;-88
2021/08/16 01:55:08;;;;;;;0.60;0.20;;;;;;;;;;6061728;23;20019;-88
2021/08/16 01:57:35;;;;;;;0.10;0.10;;;;;;;;;;6061694;23;20020;-88
2021/08/16 02:00:01;;;;;;;0.10;0.10;;;;;;;;;;6061846;23;20038;-88
2021/08/16 02:02:27;;;;;;;0.10;0.10;;;;;;;;;;6061707;23;20456;-88
2021/08/16 02:04:53;;;;;;;0.10;0.10;;;;;;;;;;6061327;23;20007;-87
2021/08/16 02:07:19;;;;;;;0.85;0.85;;;;;;;;;;6039240;23;20441;-88
2021/08/16 02:09:45;;;;;;;0.15;0.15;;;;;;;;;;6061620;23;20015;-88
2021/08/16 02:12:11;;;;;;;0.10;0.10;;;;;;;;;;6061578;23;20067;-87
2021/08/16 02:14:38;;;;;;;0.20;0.20;;;;;;;;;;6061634;23;20018;-88
2021/08/16 02:17:04;;;;;;;0.10;0.10;;;;;;;;;;6061569;23;20442;-88
2021/08/16 02:19:30;;;;;;;0.10;0.10;;;;;;;;;;6039308;23;20070;-87
2021/08/16 02:21:56;;;;;;;0.10;0.10;;;;;;;;;;6061453;23;20442;-87
2021/08/16 02:24:22;;;;;;;0.10;0.10;;;;;;;;;;6061418;23;20436;-88
2021/08/16 02:26:48;;;;;;;0.10;0.10;;;;;;;;;;6061116;23;20043;-88
2021/08/16 02:29:14;;;;;;;0.10;0.10;;;;;;;;;;6061165;23;20046;-87
2021/08/16 02:31:40;;;;;;;0.10;0.10;;;;;;;;;;6061264;23;20034;-87
2021/08/16 02:34:06;;;;;;;0.10;0.10;;;;;;;;;;6061565;23;20015;-87
2021/08/16 02:36:32;;;;;;;0.30;0.30;;;;;;;;;;6060900;23;20331;-88
2021/08/16 02:38:58;;;;;;;0.20;0.20;;;;;;;;;;6061314;23;20015;-87
2021/08/16 02:41:24;;;;;;;0.10;0.10;;;;;;;;;;6061318;23;20315;-87
2021/08/16 02:43:50;;;;;;;0.10;0.10;;;;;;;;;;6061275;23;20015;-87
2021/08/16 02:46:19;;;;;;;0.10;0.10;;;;;;;;;;6060783;23;20537;-86
2021/08/16 02:48:45;;;;;;;0.10;0.10;;;;;;;;;;6060593;23;20027;-87
2021/08/16 02:51:11;;;;;;;0.10;0.10;;;;;;;;;;6061251;23;20100;-86
2021/08/16 02:53:37;;;;;;;0.10;0.10;;;;;;;;;;6038515;23;20011;-86
2021/08/16 02:56:03;;;;;;;0.10;0.10;;;;;;;;;;6061426;23;20015;-88
2021/08/16 02:58:31;;;;;;;0.10;0.10;;;;;;;;;;6060575;23;20015;-88
2021/08/16 03:00:57;;;;;;;0.10;0.10;;;;;;;;;;6060837;23;20034;-88
2021/08/16 03:03:23;;;;;;;0.10;0.10;;;;;;;;;;6061241;23;20315;-88
2021/08/16 03:05:49;;;;;;;0.10;0.10;;;;;;;;;;6061110;23;20019;-87
2021/08/16 03:08:15;;;;;;;0.10;0.10;;;;;;;;;;6060877;23;20027;-86
2021/08/16 03:10:41;;;;;;;0.20;0.20;;;;;;;;;;6061166;23;20015;-88
2021/08/16 03:13:07;;;;;;;0.10;0.10;;;;;;;;;;6061609;23;20015;-90
2021/08/16 03:15:33;;;;;;;0.10;0.10;;;;;;;;;;6061719;23;20336;-88
2021/08/16 03:18:00;;;;;;;0.10;0.10;;;;;;;;;;6060951;23;20063;-87
2021/08/16 03:20:26;;;;;;;0.10;0.10;;;;;;;;;;6060803;23;20458;-87
2021/08/16 03:22:52;;;;;;;0.10;0.10;;;;;;;;;;6061116;23;20022;-87
2021/08/16 03:25:18;;;;;;;0.10;0.10;;;;;;;;;;6038622;23;20015;-87
2021/08/16 03:27:46;;;;;;;0.10;0.10;;;;;;;;;;6060347;23;20094;-87
2021/08/16 03:30:12;;;;;;;0.10;0.10;;;;;;;;;;6060992;23;20020;-87
2021/08/16 03:32:38;;;;;;;0.10;0.10;;;;;;;;;;6060826;23;20043;-87
2021/08/16 03:35:06;;;;;;;0.10;0.10;;;;;;;;;;6061042;23;20019;-87
2021/08/16 03:37:34;;;;;;;0.10;0.10;;;;;;;;;;6060488;23;20027;-87
2021/08/16 03:40:00;;;;;;;0.10;0.10;;;;;;;;;;6060209;23;20019;-87
2021/08/16 03:42:26;;;;;;;0.10;0.10;;;;;;;;;;6060815;23;20019;-87
2021/08/16 03:44:52;;;;;;;0.20;0.20;;;;;;;;;;6060827;23;20382;-88
2021/08/16 03:47:18;;;;;;;0.10;0.10;;;;;;;;;;6060550;23;20016;-87
2021/08/16 03:49:44;;;;;;;0.10;0.10;;;;;;;;;;6038572;23;20019;-87
2021/08/16 03:52:10;;;;;;;0.10;0.10;;;;;;;;;;6038727;23;20016;-87
2021/08/16 03:54:36;;;;;;;0.10;0.10;;;;;;;;;;6060776;23;20039;-87
2021/08/16 03:57:02;;;;;;;0.10;0.10;;;;;;;;;;6060798;23;20012;-88
2021/08/16 03:59:35;;;;;;;0.10;0.10;;;;;;;;;;6069303;23;20022;-88
2021/08/16 04:02:01;;;;;;;0.10;0.10;;;;;;;;;;6060877;23;20094;-88
2021/08/16 04:04:27;;;;;;;0.10;0.10;;;;;;;;;;6060772;23;20011;-88
2021/08/16 04:06:54;;;;;;;0.10;0.10;;;;;;;;;;6060522;23;20346;-88
2021/08/16 04:09:20;;;;;;;0.20;0.20;;;;;;;;;;6061310;23;20023;-87
2021/08/16 04:11:47;;;;;;;0.10;0.10;;;;;;;;;;6062256;23;20022;-87
2021/08/16 04:14:13;;;;;;;0.10;0.10;;;;;;;;;;6062767;23;20015;-88
2021/08/16 04:16:39;;;;;;;0.10;0.10;;;;;;;;;;6062739;23;20019;-87
2021/08/16 04:19:05;;;;;;;0.15;0.15;;;;;;;;;;6062250;23;20017;-88
2021/08/16 04:21:31;;;;;;;0.10;0.10;;;;;;;;;;6062432;23;20018;-87
2021/08/16 04:23:57;;;;;;;0.10;0.10;;;;;;;;;;6062491;23;20334;-87
2021/08/16 04:26:24;;;;;;;0.10;0.10;;;;;;;;;;6062424;23;20011;-87
2021/08/16 04:28:50;;;;;;;0.10;0.10;;;;;;;;;;6062308;23;20025;-87
2021/08/16 04:31:16;;;;;;;0.13;0.13;;;;;;;;;;6062130;23;20442;-88
2021/08/16 04:33:42;;;;;;;0.10;0.10;;;;;;;;;;6040183;23;20018;-87
2021/08/16 04:36:08;;;;;;;0.10;0.10;;;;;;;;;;6062586;23;20015;-87
2021/08/16 04:38:35;;;;;;;0.10;0.10;;;;;;;;;;6040301;23;20375;-87
2021/08/16 04:41:01;;;;;;;0.10;0.10;;;;;;;;;;6062274;23;20011;-87
2021/08/16 04:43:27;;;;;;;0.10;0.10;;;;;;;;;;6062034;23;20472;-87
2021/08/16 04:45:53;;;;;;;0.10;0.10;;;;;;;;;;6061927;23;20363;-87
2021/08/16 04:48:19;;;;;;;0.10;0.10;;;;;;;;;;6062194;23;20042;-87
2021/08/16 04:50:45;;;;;;;0.10;0.10;;;;;;;;;;6062153;23;20019;-87
2021/08/16 04:53:11;;;;;;;0.10;0.10;;;;;;;;;;6062214;23;20094;-88
2021/08/16 04:55:37;;;;;;;0.10;0.10;;;;;;;;;;6039847;23;20050;-88
2021/08/16 04:58:08;;;;;;;0.20;0.20;;;;;;;;;;6064190;23;20023;-87
2021/08/16 05:00:40;;;;;;;0.10;0.10;;;;;;;;;;6058998;23;21237;-87
2021/08/16 05:03:06;;;;;;;0.20;0.20;;;;;;;;;;6106746;23;20017;-87
2021/08/16 05:05:34;;;;;;;0.10;0.10;;;;;;;;;;6097089;23;20014;-86
2021/08/16 05:08:00;;;;;;;0.20;0.20;;;;;;;;;;6095626;23;20049;-87
2021/08/16 05:10:27;;;;;;;0.10;0.10;;;;;;;;;;6071803;23;20014;-87
2021/08/16 05:12:54;;;;;;;0.10;0.10;;;;;;;;;;6071605;23;20104;-89
2021/08/16 05:15:20;;;;;;;0.20;0.20;;;;;;;;;;6071261;23;20022;-88
2021/08/16 05:17:46;;;;;;;0.10;0.10;;;;;;;;;;6047428;23;20397;-90
2021/08/16 05:20:12;;;;;;;0.10;0.10;;;;;;;;;;6096273;23;20373;-90
2021/08/16 05:22:39;;;;;;;0.10;0.10;;;;;;;;;;6072144;23;20373;-90
2021/08/16 05:25:06;;;;;;;0.10;0.10;;;;;;;;;;6071368;23;20040;-86
2021/08/16 05:27:52;;;;;;;0.10;0.10;;;;;;;;;;6075496;23;20018;-85
2021/08/16 05:30:22;;;;;;;0.10;0.10;;;;;;;;;;6106540;23;20038;-85
2021/08/16 05:32:49;;;;;;;0.10;0.10;;;;;;;;;;6095490;23;20073;-86
2021/08/16 05:35:15;;;;;;;0.10;0.10;;;;;;;;;;6097029;23;20025;-87
2021/08/16 05:37:41;;;;;;;0.20;0.20;;;;;;;;;;6071939;23;20038;-87
2021/08/16 05:40:07;;;;;;;0.10;0.10;;;;;;;;;;6095885;23;20015;-93
2021/08/16 05:42:34;;;;;;;0.10;0.10;;;;;;;;;;6071927;23;20105;-88
2021/08/16 05:45:01;;;;;;;0.10;0.10;;;;;;;;;;6095612;23;20014;-89
2021/08/16 05:47:27;;;;;;;0.10;0.10;;;;;;;;;;6071206;23;20092;-89
2021/08/16 05:49:54;;;;;;;0.10;0.10;;;;;;;;;;6071949;23;20018;-90
2021/08/16 05:52:22;;;;;;;0.10;0.10;;;;;;;;;;6072268;23;20303;-91
2021/08/16 05:54:48;;;;;;;0.10;0.10;;;;;;;;;;6095558;23;20423;-89
2021/08/16 05:57:14;;;;;;;0.50;0.50;;;;;;;;;;6095704;23;20311;-89
2021/08/16 05:59:40;;;;;;;0.10;0.10;;;;;;;;;;6095638;23;20011;-91
2021/08/16 06:02:09;;;;;;;0.10;0.10;;;;;;;;;;6071441;23;20065;-88
2021/08/16 06:04:35;;;;;;;0.10;0.10;;;;;;;;;;6071212;23;20015;-89
2021/08/16 06:07:01;;;;;;;0.10;0.10;;;;;;;;;;6095216;23;20089;-87
2021/08/16 06:09:27;;;;;;;0.10;0.10;;;;;;;;;;6095185;23;20030;-89
2021/08/16 06:11:53;;;;;;;0.10;0.10;;;;;;;;;;6095176;23;20010;-87
2021/08/16 06:14:19;;;;;;;0.20;0.20;;;;;;;;;;6071124;23;20014;-86
2021/08/16 06:16:45;;;;;;;0.10;0.10;;;;;;;;;;6095117;23;20018;-87
2021/08/16 06:19:12;;;;;;;0.20;0.20;;;;;;;;;;6095118;23;20377;-86
2021/08/16 06:21:42;;;;;;;0.10;0.10;;;;;;;;;;6096386;23;20089;-86
2021/08/16 06:24:09;;;;;;;0.10;0.10;;;;;;;;;;6104636;23;20014;-86
2021/08/16 06:26:35;;;;;;;0.10;0.10;;;;;;;;;;6094408;23;20014;-86
2021/08/16 06:29:01;;;;;;;0.17;0.17;;;;;;;;;;6094824;23;20061;-86
2021/08/16 06:31:27;;;;;;;0.30;0.30;;;;;;;;;;6096016;23;20014;-86
2021/08/16 06:33:53;;;;;;;0.10;0.10;;;;;;;;;;6096252;23;20018;-86
2021/08/16 06:36:19;;;;;;;0.15;0.15;;;;;;;;;;6095155;23;20102;-85
2021/08/16 06:38:47;;;;;;;0.13;0.13;;;;;;;;;;6094647;23;20014;-86
2021/08/16 06:41:16;;;;;;;0.10;0.10;;;;;;;;;;6070498;23;20445;-86
2021/08/16 06:43:42;;;;;;;0.10;0.10;;;;;;;;;;6070376;23;20078;-86
2021/08/16 06:46:08;;;;;;;0.20;0.20;;;;;;;;;;6094351;23;20385;-86
2021/08/16 06:48:34;;;;;;;0.30;0.30;;;;;;;;;;6094530;23;20010;-85
2021/08/16 06:51:00;;;;;;;0.10;0.10;;;;;;;;;;6096247;23;20026;-86
2021/08/16 06:53:26;;;;;;;0.13;0.13;;;;;;;;;;6094874;23;20015;-85
2021/08/16 06:55:53;;;;;;;0.10;0.10;;;;;;;;;;6096146;23;20098;-86
2021/08/16 06:58:19;;;;;;;0.10;0.10;;;;;;;;;;6070368;23;20337;-86
2021/08/16 07:00:46;;;;;;;0.10;0.10;;;;;;;;;;6094121;23;20021;-86
2021/08/16 07:03:13;;;;;;;0.10;0.10;;;;;;;;;;6105719;23;20015;-86
2021/08/16 07:05:43;;;;;;;0.20;0.20;;;;;;;;;;6070633;23;20025;-86
2021/08/16 07:08:09;;;;;;;0.20;0.20;;;;;;;;;;6070191;23;20018;-86
2021/08/16 07:10:35;;;;;;;0.10;0.10;;;;;;;;;;6094690;23;20045;-85
2021/08/16 07:13:01;;;;;;;0.10;0.10;;;;;;;;;;6096078;23;20018;-86
2021/08/16 07:15:27;;;;;;;0.10;0.10;;;;;;;;;;6046473;23;20022;-85
2021/08/16 07:17:54;;;;;;;0.10;0.10;;;;;;;;;;6095756;23;20075;-85
2021/08/16 07:20:22;;;;;;;0.10;0.10;;;;;;;;;;6094732;23;20516;-85
2021/08/16 07:22:48;;;;;;;0.10;0.10;;;;;;;;;;6094394;23;20089;-85
2021/08/16 07:25:14;;;;;;;0.10;0.10;;;;;;;;;;6094371;23;20381;-85
2021/08/16 07:27:40;;;;;;;0.60;0.10;;;;;;;;;;6095828;23;20041;-86
2021/08/16 07:30:07;;;;;;;0.10;0.10;;;;;;;;;;6094603;23;20015;-85
2021/08/16 07:32:33;;;;;;;0.30;0.30;;;;;;;;;;6094663;23;20014;-85
2021/08/16 07:34:59;;;;;;;0.10;0.10;;;;;;;;;;6096025;23;20025;-85
2021/08/16 07:37:25;;;;;;;0.10;0.10;;;;;;;;;;6094654;23;20081;-84
2021/08/16 07:39:51;;;;;;;0.10;0.10;;;;;;;;;;6071042;23;20516;-85
2021/08/16 07:42:18;;;;;;;0.10;0.10;;;;;;;;;;6070240;23;20093;-87
2021/08/16 07:44:44;;;;;;;0.10;0.10;;;;;;;;;;6096304;23;20441;-85
2021/08/16 07:47:10;;;;;;;0.10;0.10;;;;;;;;;;6096216;23;20392;-89
2021/08/16 07:49:36;;;;;;;0.10;0.10;;;;;;;;;;6096424;23;20018;-88
2021/08/16 07:52:02;;;;;;;0.10;0.10;;;;;;;;;;6072246;23;20017;-88
2021/08/16 07:54:28;;;;;;;0.32;0.32;;;;;;;;;;6072031;23;20025;-88
2021/08/16 07:56:55;;;;;;;0.10;0.10;;;;;;;;;;6072312;23;20026;-88
2021/08/16 07:59:21;;;;;;;0.10;0.10;;;;;;;;;;6072507;23;20022;-89
2021/08/16 08:01:47;;;;;;;0.10;0.10;;;;;;;;;;6071933;23;20344;-88
2021/08/16 08:04:15;;;;;;;0.20;0.20;;;;;;;;;;6072471;23;20019;-86
2021/08/16 08:06:41;;;;;;;0.17;0.17;;;;;;;;;;6096215;23;20445;-86
2021/08/16 08:09:07;;;;;;;0.15;0.15;;;;;;;;;;6072542;23;20097;-89
2021/08/16 08:11:33;;;;;;;0.10;0.10;;;;;;;;;;6072120;23;20033;-87
2021/08/16 08:13:59;;;;;;;0.10;0.10;;;;;;;;;;6096718;23;20441;-88
2021/08/16 08:16:25;;;;;;;0.20;0.20;;;;;;;;;;6094597;23;20015;-88
2021/08/16 08:18:51;;;;;;;0.20;0.20;;;;;;;;;;6071010;23;20113;-89
2021/08/16 08:21:17;;;;;;;0.20;0.20;;;;;;;;;;6095983;23;20018;-88
2021/08/16 08:23:43;;;;;;;0.13;0.13;;;;;;;;;;6096116;23;20010;-88
2021/08/16 08:26:09;;;;;;;0.10;0.10;;;;;;;;;;6096267;23;20017;-91
2021/08/16 08:28:35;;;;;;;0.10;0.10;;;;;;;;;;6072100;23;20445;-88
2021/08/16 08:31:01;;;;;;;0.10;0.10;;;;;;;;;;6095750;23;20054;-88
2021/08/16 08:33:27;;;;;;;0.55;0.55;;;;;;;;;;6096301;23;20010;-88
2021/08/16 08:35:53;;;;;;;0.20;0.20;;;;;;;;;;6096575;23;20089;-88
2021/08/16 08:38:20;;;;;;;0.10;0.10;;;;;;;;;;6072038;23;20093;-85
2021/08/16 08:40:46;;;;;;;0.20;0.20;;;;;;;;;;6071954;23;20017;-85
2021/08/16 08:43:13;;;;;;;0.10;0.10;;;;;;;;;;6096007;23;20014;-86
2021/08/16 08:45:39;;;;;;;0.30;0.30;;;;;;;;;;6095890;23;20022;-85
2021/08/16 08:48:05;;;;;;;0.20;0.20;;;;;;;;;;6071722;23;20443;-85
2021/08/16 08:50:31;;;;;;;0.10;0.10;;;;;;;;;;6097242;23;20010;-84
2021/08/16 08:52:58;;;;;;;0.20;0.20;;;;;;;;;;6097077;23;20073;-85
2021/08/16 08:55:24;;;;;;;0.20;0.20;;;;;;;;;;6095560;23;20449;-85
2021/08/16 08:57:50;;;;;;;0.20;0.20;;;;;;;;;;6071408;23;20333;-84
2021/08/16 09:00:18;;;;;;;0.20;0.20;;;;;;;;;;6095611;23;20011;-85
2021/08/16 09:02:55;;;;;;;0.10;0.10;;;;;;;;;;6071215;23;20477;-84
2021/08/16 09:05:23;;;;;;;0.10;0.10;;;;;;;;;;6105068;23;20026;-84
2021/08/16 09:07:49;;;;;;;0.20;0.20;;;;;;;;;;6095641;23;20019;-85
2021/08/16 09:10:15;;;;;;;0.20;0.20;;;;;;;;;;6071154;23;20014;-85
2021/08/16 09:12:41;;;;;;;0.20;0.20;;;;;;;;;;6071434;23;20064;-85
2021/08/16 09:15:21;;;;;;;0.40;0.40;;;;;;;;;;6095574;23;20018;-85
2021/08/16 09:17:47;;;;;;;0.10;0.10;;;;;;;;;;6096773;23;20014;-85
2021/08/16 09:20:17;;;;;;;0.10;0.10;;;;;;;;;;6095873;23;20073;-86
2021/08/16 09:22:43;;;;;;;0.10;0.10;;;;;;;;;;6071187;23;20015;-86
2021/08/16 09:25:11;;;;;;;0.20;0.20;;;;;;;;;;6096839;23;20322;-84
2021/08/16 09:27:47;;;;;;;0.15;0.15;;;;;;;;;;6095287;23;20437;-85
2021/08/16 09:30:16;;;;;;;0.40;0.40;;;;;;;;;;6070886;23;20124;-84
2021/08/16 09:32:43;;;;;;;0.10;0.10;;;;;;;;;;6095535;23;20050;-85
2021/08/16 09:35:12;;;;;;;0.20;0.20;;;;;;;;;;6047024;23;20369;-86
2021/08/16 09:37:40;;;;;;;0.20;0.20;;;;;;;;;;6096501;23;20025;-85
2021/08/16 09:40:07;;;;;;;0.13;0.13;;;;;;;;;;6071079;23;20033;-85
2021/08/16 09:42:46;;;;;;;0.10;0.10;;;;;;;;;;6071750;23;20052;-86
2021/08/16 09:45:33;;;;;;;0.20;0.20;;;;;;;;;;6046849;23;20018;-85
2021/08/16 09:47:59;;;;;;;0.10;0.10;;;;;;;;;;6096549;23;20042;-87
2021/08/16 09:50:40;;;;;;;0.20;0.20;;;;;;;;;;6071387;23;20026;-86
2021/08/16 09:53:06;;;;;;;0.10;0.10;;;;;;;;;;6070992;23;20019;-86
2021/08/16 09:55:33;;;;;;;0.20;0.20;;;;;;;;;;6095035;23;20053;-87
2021/08/16 09:57:59;;;;;;;0.20;0.20;;;;;;;;;;6095253;23;20015;-88
2021/08/16 10:00:25;;;;;;;0.10;0.10;;;;;;;;;;6070940;23;20021;-86
2021/08/16 10:02:51;;;;;;;0.20;0.20;;;;;;;;;;6089877;23;20438;-87
2021/08/16 10:05:20;;;;;;;0.10;0.10;;;;;;;;;;6066452;23;20019;-89
2021/08/16 10:07:46;;;;;;;0.10;0.10;;;;;;;;;;6089569;23;20011;-87
2021/08/16 10:10:12;;;;;;;0.10;0.10;;;;;;;;;;6066044;23;20021;-88
2021/08/16 10:12:38;;;;;;;0.15;0.15;;;;;;;;;;6065491;23;20390;-86
2021/08/16 10:15:04;;;;;;;2.40;0.30;;;;;;;;;;6065443;23;20015;-86
2021/08/16 10:17:37;;;;;;;0.17;0.17;;;;;;;;;;6090134;23;20015;-86
2021/08/16 10:20:03;;;;;;;0.10;0.10;;;;;;;;;;6090039;23;20093;-85
2021/08/16 10:22:35;;;;;;;0.20;0.20;;;;;;;;;;6090466;23;20015;-85
2021/08/16 10:25:08;;;;;;;0.40;0.40;;;;;;;;;;6090569;23;20015;-86
2021/08/16 10:27:34;;;;;;;0.10;0.10;;;;;;;;;;6067575;23;20047;-86
2021/08/16 10:30:04;;;;;;;0.10;0.10;;;;;;;;;;6090260;23;20015;-86
2021/08/16 10:32:30;;;;;;;0.10;0.10;;;;;;;;;;6089930;23;20045;-85
2021/08/16 10:35:04;;;;;;;0.20;0.20;;;;;;;;;;6089184;23;20394;-86
2021/08/16 10:37:39;;;;;;;0.32;0.20;;;;;;;;;;6041734;23;20093;-87
2021/08/16 10:40:15;;;;;;;0.10;0.10;;;;;;;;;;6065798;23;20014;-89
2021/08/16 10:42:41;;;;;;;0.10;0.10;;;;;;;;;;6067476;23;20033;-86
2021/08/16 10:45:09;;;;;;;0.20;0.20;;;;;;;;;;6089560;23;20049;-85
2021/08/16 10:47:35;;;;;;;0.10;0.10;;;;;;;;;;6089158;23;20445;-85
2021/08/16 10:50:02;;;;;;;0.10;0.10;;;;;;;;;;6089884;23;20022;-86
2021/08/16 10:52:29;;;;;;;0.10;0.10;;;;;;;;;;6089469;23;20019;-86
2021/08/16 10:54:55;;;;;;;0.10;0.10;;;;;;;;;;6041675;23;20082;-86
2021/08/16 10:57:21;;;;;;;0.20;0.20;;;;;;;;;;6065845;23;20454;-87
2021/08/16 10:59:47;;;;;;;0.10;0.10;;;;;;;;;;6065496;23;20070;-86
2021/08/16 11:02:13;;;;;;;0.10;0.10;;;;;;;;;;6089339;23;20063;-86
2021/08/16 11:04:44;;;;;;;0.10;0.10;;;;;;;;;;6065660;23;20023;-90
2021/08/16 11:07:12;;;;;;;0.13;0.13;;;;;;;;;;6072510;23;20011;-88
2021/08/16 11:09:38;;;;;;;0.10;0.10;;;;;;;;;;6065506;23;20089;-89
2021/08/16 11:12:06;;;;;;;0.38;0.38;;;;;;;;;;6065828;23;20062;-88
2021/08/16 11:14:33;;;;;;;0.10;0.10;;;;;;;;;;6089500;23;20011;-87
2021/08/16 11:16:59;;;;;;;0.10;0.10;;;;;;;;;;6089458;23;20043;-86
2021/08/16 11:19:26;;;;;;;0.10;0.10;;;;;;;;;;6067092;23;20070;-87
2021/08/16 11:21:53;;;;;;;0.10;0.10;;;;;;;;;;6089192;23;20015;-85
2021/08/16 11:24:25;;;;;;;0.10;0.10;;;;;;;;;;6089412;23;20019;-87
2021/08/16 11:26:51;;;;;;;0.10;0.10;;;;;;;;;;6065247;23;20023;-85
2021/08/16 11:29:17;;;;;;;0.20;0.20;;;;;;;;;;6067062;23;20464;-86
2021/08/16 11:31:43;;;;;;;0.70;0.20;;;;;;;;;;6089409;23;20077;-85
2021/08/16 11:34:09;;;;;;;0.55;0.43;;;;;;;;;;6067189;23;20019;-85
2021/08/16 11:36:35;;;;;;;0.10;0.10;;;;;;;;;;6089532;23;20015;-86
2021/08/16 11:39:02;;;;;;;0.10;0.10;;;;;;;;;;6089697;23;20337;-86
2021/08/16 11:41:34;;;;;;;0.10;0.10;;;;;;;;;;6065696;23;20366;-86
2021/08/16 11:44:15;;;;;;;0.22;0.22;;;;;;;;;;6066752;23;20015;-85
2021/08/16 11:46:42;;;;;;;0.10;0.10;;;;;;;;;;6066953;23;20014;-85
2021/08/16 11:49:09;;;;;;;0.20;0.20;;;;;;;;;;6089847;23;20094;-85
2021/08/16 11:51:35;;;;;;;0.43;0.43;;;;;;;;;;6065635;23;20442;-86
2021/08/16 11:54:01;;;;;;;0.10;0.10;;;;;;;;;;6089424;23;20019;-87
2021/08/16 11:56:27;;;;;;;0.10;0.10;;;;;;;;;;6066041;23;20029;-85
2021/08/16 11:58:53;;;;;;;0.38;0.20;;;;;;;;;;6089454;23;20082;-85
2021/08/16 12:01:20;;;;;;;0.73;0.73;;;;;;;;;;6093508;23;20021;-85
2021/08/16 12:03:46;;;;;;;0.30;0.30;;;;;;;;;;6079733;23;20017;-85
2021/08/16 12:06:13;;;;;;;0.63;0.55;;;;;;;;;;6094537;23;20015;-84
2021/08/16 12:08:40;;;;;;;0.10;0.10;;;;;;;;;;6095128;23;20014;-84
2021/08/16 12:11:13;;;;;;;0.10;0.10;;;;;;;;;;6094959;23;20070;-85
2021/08/16 12:13:39;;;;;;;0.10;0.10;;;;;;;;;;6070057;23;20093;-86
2021/08/16 12:16:05;;;;;;;0.10;0.10;;;;;;;;;;6070363;23;20021;-84
2021/08/16 12:18:32;;;;;;;0.20;0.20;;;;;;;;;;6095671;23;20014;-84
2021/08/16 12:20:58;;;;;;;0.10;0.10;;;;;;;;;;6094244;23;20047;-84
2021/08/16 12:23:31;;;;;;;0.30;0.30;;;;;;;;;;6094084;23;20014;-86
2021/08/16 12:25:57;;;;;;;0.25;0.25;;;;;;;;;;6094045;23;20293;-89
2021/08/16 12:28:35;;;;;;;0.10;0.10;;;;;;;;;;6094495;23;20089;-83
2021/08/16 12:31:11;;;;;;;0.10;0.10;;;;;;;;;;6106179;23;20014;-86
2021/08/16 12:33:37;;;;;;;0.20;0.20;;;;;;;;;;6105258;23;20010;-85
2021/08/16 12:36:03;;;;;;;0.10;0.10;;;;;;;;;;6096743;23;20089;-86
2021/08/16 12:38:29;;;;;;;0.65;0.65;;;;;;;;;;6095572;23;20037;-86
2021/08/16 12:40:59;;;;;;;0.10;0.10;;;;;;;;;;6071325;23;20033;-85
2021/08/16 12:43:34;;;;;;;0.10;0.10;;;;;;;;;;6095573;23;20010;-86
2021/08/16 12:46:00;;;;;;;0.10;0.10;;;;;;;;;;6104956;23;20328;-86
2021/08/16 12:48:26;;;;;;;0.10;0.10;;;;;;;;;;6095444;23;20066;-85
2021/08/16 12:50:52;;;;;;;0.35;0.35;;;;;;;;;;6095383;23;20022;-86
2021/08/16 12:53:18;;;;;;;0.28;0.28;;;;;;;;;;6071094;23;20333;-85
2021/08/16 12:55:46;;;;;;;0.10;0.10;;;;;;;;;;6071685;23;20022;-86
2021/08/16 12:58:12;;;;;;;0.10;0.10;;;;;;;;;;6070710;23;20014;-85
2021/08/16 13:00:38;;;;;;;0.10;0.10;;;;;;;;;;6095683;23;20389;-87
2021/08/16 13:03:04;;;;;;;0.20;0.20;;;;;;;;;;6096824;23;20045;-85
2021/08/16 13:05:31;;;;;;;0.35;0.35;;;;;;;;;;6094959;23;20015;-86
2021/08/16 13:07:57;;;;;;;3.72;0.32;;;;;;;;;;6070882;23;20463;-85
2021/08/16 13:10:26;;;;;;;0.20;0.20;;;;;;;;;;6095242;23;20010;-84
2021/08/16 13:12:52;;;;;;;0.10;0.10;;;;;;;;;;6071206;23;20443;-85
2021/08/16 13:15:19;;;;;;;0.20;0.20;;;;;;;;;;6071045;23;20024;-84
2021/08/16 13:17:45;;;;;;;0.10;0.10;;;;;;;;;;6071112;23;20030;-84
2021/08/16 13:20:11;;;;;;;0.10;0.10;;;;;;;;;;6097000;23;20010;-84
2021/08/16 13:22:37;;;;;;;0.13;0.13;;;;;;;;;;6071231;23;20079;-84
2021/08/16 13:25:04;;;;;;;0.10;0.10;;;;;;;;;;6070806;23;20015;-84
2021/08/16 13:27:30;;;;;;;0.20;0.20;;;;;;;;;;6070678;23;20069;-84
2021/08/16 13:29:56;;;;;;;0.17;0.13;;;;;;;;;;6094701;23;20014;-84
2021/08/16 13:32:22;;;;;;;0.10;0.10;;;;;;;;;;6095072;23;20317;-84
2021/08/16 13:34:48;;;;;;;0.20;0.20;;;;;;;;;;6096547;23;20014;-85
2021/08/16 13:37:14;;;;;;;0.15;0.15;;;;;;;;;;6095185;23;20025;-86
2021/08/16 13:39:41;;;;;;;0.10;0.10;;;;;;;;;;6071482;23;20441;-86
2021/08/16 13:42:07;;;;;;;0.10;0.10;;;;;;;;;;6070995;23;20014;-84
2021/08/16 13:44:33;;;;;;;0.20;0.20;;;;;;;;;;6094874;23;20063;-84
2021/08/16 13:47:00;;;;;;;0.10;0.10;;;;;;;;;;6096131;23;20014;-84
2021/08/16 13:49:26;;;;;;;0.20;0.20;;;;;;;;;;6095022;23;20011;-85
2021/08/16 13:51:52;;;;;;;0.10;0.10;;;;;;;;;;6070667;23;20021;-84
2021/08/16 13:54:18;;;;;;;0.20;0.20;;;;;;;;;;6094799;23;20010;-85
2021/08/16 13:56:46;;;;;;;0.20;0.20;;;;;;;;;;6094810;23;20023;-85
2021/08/16 13:59:12;;;;;;;5.63;0.80;;;;;;;;;;6096505;23;20014;-85
2021/08/16 14:01:38;;;;;;;0.10;0.10;;;;;;;;;;6094705;23;20015;-85
2021/08/16 14:04:04;;;;;;;0.10;0.10;;;;;;;;;;6094791;23;20014;-85
2021/08/16 14:06:30;;;;;;;0.22;0.22;;;;;;;;;;6094977;23;20011;-90
2021/08/16 14:08:57;;;;;;;1.10;0.20;;;;;;;;;;6045735;23;20018;-86
2021/08/16 14:11:23;;;;;;;0.30;0.30;;;;;;;;;;6070410;23;20010;-85
2021/08/16 14:13:49;;;;;;;0.10;0.10;;;;;;;;;;6096535;23;20018;-86
2021/08/16 14:16:15;;;;;;;0.85;0.75;;;;;;;;;;6094950;23;20038;-85
2021/08/16 14:18:41;;;;;;;0.20;0.20;;;;;;;;;;6070546;23;20022;-85
2021/08/16 14:21:07;;;;;;;0.35;0.35;;;;;;;;;;6094787;23;20010;-85
2021/08/16 14:23:34;;;;;;;0.10;0.10;;;;;;;;;;6070815;23;20018;-85
2021/08/16 14:26:00;;;;;;;0.20;0.20;;;;;;;;;;6070395;23;20318;-86
2021/08/16 14:28:26;;;;;;;0.10;0.10;;;;;;;;;;6070589;23;20050;-85
2021/08/16 14:30:52;;;;;;;0.10;0.10;;;;;;;;;;6096355;23;20014;-85
2021/08/16 14:33:22;;;;;;;0.10;0.10;;;;;;;;;;6094810;23;20085;-85
2021/08/16 14:35:50;;;;;;;1.13;1.13;;;;;;;;;;6070478;23;20022;-85
2021/08/16 14:38:17;;;;;;;0.10;0.10;;;;;;;;;;6070241;23;20038;-85
2021/08/16 14:40:43;;;;;;;0.10;0.10;;;;;;;;;;6094730;23;20011;-85